createdAt,value
2017-12-16T00:00:12.684Z,8.82
2017-12-16T00:02:46.549Z,8.10
2017-12-16T00:05:21.456Z,9.02
2017-12-16T00:07:55.265Z,6.80
2017-12-16T00:10:29.782Z,6.85
2017-12-16T00:13:03.635Z,7.15
2017-12-16T00:15:37.424Z,7.40
2017-12-16T00:18:11.253Z,8.15
2017-12-16T00:20:45.108Z,9.30
2017-12-16T00:23:18.935Z,9.32
2017-12-16T00:25:52.935Z,13.23
2017-12-16T00:28:26.492Z,9.88
2017-12-16T00:31:00.464Z,12.40
2017-12-16T00:33:34.254Z,11.82
2017-12-16T00:36:07.986Z,9.32
2017-12-16T00:38:42.551Z,7.35
2017-12-16T00:41:16.134Z,8.50
2017-12-16T00:43:50.065Z,7.43
2017-12-16T00:46:23.756Z,8.75
2017-12-16T00:48:57.665Z,7.60
2017-12-16T00:51:31.368Z,9.30
2017-12-16T00:54:05.402Z,8.63
2017-12-16T00:56:39.141Z,7.78
2017-12-16T00:59:12.945Z,15.27
2017-12-16T01:01:46.733Z,9.13
2017-12-16T01:04:20.938Z,9.60
2017-12-16T01:06:54.786Z,10.85
2017-12-16T01:09:28.569Z,7.80
2017-12-16T01:12:02.281Z,8.45
2017-12-16T01:14:36.865Z,8.80
2017-12-16T01:17:10.581Z,9.65
2017-12-16T01:19:44.398Z,13.90
2017-12-16T01:22:18.198Z,9.45
2017-12-16T01:24:52.150Z,8.90
2017-12-16T01:27:25.879Z,7.87
2017-12-16T01:30:00.021Z,10.65
2017-12-16T01:32:33.762Z,7.72
2017-12-16T01:35:19.644Z,10.25
2017-12-16T01:38:05.268Z,11.27
2017-12-16T01:40:39.061Z,12.68
2017-12-16T01:43:12.704Z,8.50
2017-12-16T01:45:46.712Z,8.63
2017-12-16T01:48:20.390Z,8.65
2017-12-16T01:50:54.051Z,7.12
2017-12-16T01:53:28.004Z,5.45
2017-12-16T01:56:02.458Z,4.80
2017-12-16T01:58:36.272Z,7.37
2017-12-16T02:01:10.141Z,3.78
2017-12-16T02:03:44.005Z,7.50
2017-12-16T02:06:17.711Z,7.60
2017-12-16T02:08:51.468Z,5.60
2017-12-16T02:11:25.357Z,5.95
2017-12-16T02:13:59.695Z,7.32
2017-12-16T02:16:33.388Z,6.80
2017-12-16T02:19:07.921Z,9.40
2017-12-16T02:21:41.627Z,7.47
2017-12-16T02:24:15.368Z,9.60
2017-12-16T02:26:49.469Z,7.25
2017-12-16T02:29:23.244Z,8.68
2017-12-16T02:31:57.778Z,7.03
2017-12-16T02:34:31.481Z,9.10
2017-12-16T02:37:05.250Z,7.05
2017-12-16T02:39:39.965Z,6.68
2017-12-16T02:42:13.928Z,12.55
2017-12-16T02:44:47.612Z,6.68
2017-12-16T02:47:21.769Z,9.85
2017-12-16T02:49:55.526Z,6.82
2017-12-16T02:52:29.385Z,8.52
2017-12-16T02:55:03.940Z,7.45
2017-12-16T02:57:37.988Z,7.62
2017-12-16T03:00:11.900Z,5.80
2017-12-16T03:02:45.689Z,9.30
2017-12-16T03:05:19.488Z,6.07
2017-12-16T03:07:53.344Z,7.18
2017-12-16T03:10:27.097Z,9.00
2017-12-16T03:13:00.926Z,6.28
2017-12-16T03:15:34.752Z,7.07
2017-12-16T03:18:08.460Z,7.97
2017-12-16T03:20:42.945Z,8.77
2017-12-16T03:23:17.026Z,5.35
2017-12-16T03:25:50.628Z,6.40
2017-12-16T03:28:24.418Z,7.55
2017-12-16T03:31:05.305Z,6.72
2017-12-16T03:33:39.237Z,5.60
2017-12-16T03:36:13.656Z,10.35
2017-12-16T03:38:47.506Z,8.52
2017-12-16T03:41:21.318Z,17.65
2017-12-16T03:43:55.312Z,6.75
2017-12-16T03:46:30.016Z,6.87
2017-12-16T03:49:03.959Z,5.90
2017-12-16T03:51:37.725Z,7.72
2017-12-16T03:54:11.557Z,7.70
2017-12-16T03:56:46.061Z,6.95
2017-12-16T03:59:19.756Z,6.78
2017-12-16T04:01:54.289Z,5.75
2017-12-16T04:04:28.420Z,7.00
2017-12-16T04:07:02.129Z,10.40
2017-12-16T04:09:36.743Z,6.53
2017-12-16T04:12:10.459Z,9.05
2017-12-16T04:14:44.360Z,6.32
2017-12-16T04:17:18.178Z,8.82
2017-12-16T04:19:53.052Z,13.70
2017-12-16T04:22:27.498Z,10.25
2017-12-16T04:25:01.533Z,8.00
2017-12-16T04:27:36.087Z,6.40
2017-12-16T04:30:10.884Z,5.15
2017-12-16T04:32:44.656Z,8.98
2017-12-16T04:35:18.482Z,7.15
2017-12-16T04:37:52.236Z,10.52
2017-12-16T04:40:26.067Z,7.60
2017-12-16T04:43:00.844Z,8.15
2017-12-16T04:45:35.226Z,5.78
2017-12-16T04:48:09.056Z,9.35
2017-12-16T04:50:42.781Z,7.35
2017-12-16T04:53:17.301Z,6.57
2017-12-16T04:55:50.915Z,7.18
2017-12-16T04:58:42.486Z,11.77
2017-12-16T05:01:16.212Z,8.65
2017-12-16T05:03:50.005Z,6.78
2017-12-16T05:06:23.666Z,6.95
2017-12-16T05:08:57.641Z,12.50
2017-12-16T05:11:31.449Z,11.05
2017-12-16T05:14:05.296Z,9.07
2017-12-16T05:16:40.077Z,11.77
2017-12-16T05:19:13.878Z,6.10
2017-12-16T05:21:47.690Z,11.27
2017-12-16T05:24:21.474Z,13.73
2017-12-16T05:26:55.127Z,10.73
2017-12-16T05:29:29.943Z,8.43
2017-12-16T05:32:04.438Z,7.72
2017-12-16T05:34:38.288Z,9.57
2017-12-16T05:37:13.437Z,8.15
2017-12-16T05:39:47.179Z,12.55
2017-12-16T05:42:20.865Z,8.68
2017-12-16T05:44:55.520Z,7.10
2017-12-16T05:47:29.322Z,7.15
2017-12-16T05:50:03.264Z,8.07
2017-12-16T05:52:37.965Z,9.88
2017-12-16T05:55:12.461Z,13.90
2017-12-16T05:57:46.232Z,8.63
2017-12-16T06:00:19.965Z,9.10
2017-12-16T06:02:53.682Z,10.05
2017-12-16T06:05:27.493Z,6.15
2017-12-16T06:08:01.231Z,7.82
2017-12-16T06:10:34.884Z,5.65
2017-12-16T06:13:08.658Z,7.90
2017-12-16T06:15:43.130Z,8.50
2017-12-16T06:18:16.857Z,5.78
2017-12-16T06:20:50.645Z,7.05
2017-12-16T06:23:25.159Z,5.37
2017-12-16T06:25:58.866Z,10.60
2017-12-16T06:28:32.620Z,7.18
2017-12-16T06:31:06.412Z,6.45
2017-12-16T06:33:40.333Z,10.63
2017-12-16T06:36:14.006Z,8.73
2017-12-16T06:38:47.794Z,7.87
2017-12-16T06:41:22.239Z,9.95
2017-12-16T06:43:56.049Z,7.43
2017-12-16T06:46:29.650Z,11.95
2017-12-16T06:49:03.510Z,12.95
2017-12-16T06:51:37.220Z,9.35
2017-12-16T06:54:11.073Z,11.30
2017-12-16T06:56:44.837Z,10.63
2017-12-16T06:59:18.874Z,10.27
2017-12-16T07:01:52.726Z,7.78
2017-12-16T07:04:26.472Z,9.00
2017-12-16T07:07:00.258Z,4.25
2017-12-16T07:09:34.078Z,10.63
2017-12-16T07:12:07.849Z,6.53
2017-12-16T07:14:42.629Z,7.97
2017-12-16T07:17:16.404Z,7.30
2017-12-16T07:19:50.090Z,8.73
2017-12-16T07:22:23.868Z,7.85
2017-12-16T07:24:57.589Z,6.25
2017-12-16T07:27:31.362Z,7.10
2017-12-16T07:30:05.861Z,8.43
2017-12-16T07:32:39.706Z,9.88
2017-12-16T07:35:13.509Z,8.55
2017-12-16T07:37:48.108Z,7.82
2017-12-16T07:40:21.725Z,6.75
2017-12-16T07:42:55.831Z,9.38
2017-12-16T07:45:29.611Z,5.95
2017-12-16T07:48:03.513Z,8.20
2017-12-16T07:50:37.289Z,7.70
2017-12-16T07:53:11.058Z,7.75
2017-12-16T07:55:44.846Z,10.63
2017-12-16T07:58:18.553Z,10.15
2017-12-16T08:00:52.968Z,13.75
2017-12-16T08:03:26.668Z,15.20
2017-12-16T08:06:01.249Z,8.63
2017-12-16T08:08:36.096Z,10.10
2017-12-16T08:11:10.784Z,9.48
2017-12-16T08:13:44.663Z,9.68
2017-12-16T08:16:18.398Z,7.97
2017-12-16T08:19:10.992Z,7.55
2017-12-16T08:21:45.492Z,10.82
2017-12-16T08:24:19.312Z,8.13
2017-12-16T08:26:53.931Z,7.72
2017-12-16T08:29:27.643Z,6.20
2017-12-16T08:32:04.515Z,6.97
2017-12-16T08:34:38.330Z,8.52
2017-12-16T08:37:12.801Z,7.60
2017-12-16T08:39:46.685Z,8.77
2017-12-16T08:42:20.454Z,6.55
2017-12-16T08:44:54.205Z,7.25
2017-12-16T08:47:27.934Z,7.70
2017-12-16T08:50:01.666Z,11.07
2017-12-16T08:52:35.429Z,12.18
2017-12-16T08:55:09.145Z,6.82
2017-12-16T08:57:43.069Z,8.98
2017-12-16T09:00:16.736Z,9.30
2017-12-16T09:02:51.309Z,7.65
2017-12-16T09:05:26.380Z,8.82
2017-12-16T09:08:00.266Z,9.02
2017-12-16T09:10:34.025Z,9.80
2017-12-16T09:13:07.815Z,10.27
2017-12-16T09:15:42.275Z,10.77
2017-12-16T09:18:15.986Z,10.55
2017-12-16T09:20:49.744Z,8.15
2017-12-16T09:23:24.320Z,8.15
2017-12-16T09:25:58.016Z,9.35
2017-12-16T09:28:32.033Z,11.25
2017-12-16T09:31:06.838Z,8.40
2017-12-16T09:33:40.577Z,9.63
2017-12-16T09:36:14.685Z,7.15
2017-12-16T09:38:50.542Z,7.60
2017-12-16T09:41:25.322Z,9.13
2017-12-16T09:43:58.944Z,12.40
2017-12-16T09:46:32.695Z,8.38
2017-12-16T09:49:06.515Z,9.57
2017-12-16T09:51:40.270Z,8.48
2017-12-16T09:54:14.120Z,12.00
2017-12-16T09:56:47.857Z,10.57
2017-12-16T09:59:22.518Z,10.45
2017-12-16T10:01:57.104Z,12.95
2017-12-16T10:04:31.755Z,12.40
2017-12-16T10:07:05.790Z,16.30
2017-12-16T10:09:39.578Z,14.82
2017-12-16T10:12:13.401Z,16.45
2017-12-16T10:14:47.199Z,17.30
2017-12-16T10:17:21.691Z,16.80
2017-12-16T10:19:56.344Z,15.75
2017-12-16T10:22:31.145Z,20.10
2017-12-16T10:25:05.714Z,18.75
2017-12-16T10:27:40.277Z,18.58
2017-12-16T10:30:14.164Z,18.95
2017-12-16T10:32:48.716Z,19.45
2017-12-16T10:35:22.451Z,21.80
2017-12-16T10:37:56.280Z,19.73
2017-12-16T10:40:30.102Z,19.62
2017-12-16T10:43:03.808Z,23.12
2017-12-16T10:45:37.647Z,20.70
2017-12-16T10:48:11.481Z,22.60
2017-12-16T10:50:45.303Z,20.23
2017-12-16T10:53:19.148Z,23.50
2017-12-16T10:55:52.861Z,22.27
2017-12-16T10:58:26.621Z,21.25
2017-12-16T11:01:00.452Z,21.55
2017-12-16T11:03:35.140Z,20.83
2017-12-16T11:06:08.926Z,20.48
2017-12-16T11:08:43.481Z,21.25
2017-12-16T11:11:17.341Z,23.20
2017-12-16T11:13:52.079Z,23.10
2017-12-16T11:16:25.827Z,27.85
2017-12-16T11:19:00.375Z,21.90
2017-12-16T11:21:34.976Z,20.73
2017-12-16T11:24:09.568Z,23.40
2017-12-16T11:26:44.221Z,19.98
2017-12-16T11:29:18.797Z,20.15
2017-12-16T11:31:52.611Z,19.75
2017-12-16T11:34:26.488Z,21.62
2017-12-16T11:37:00.285Z,24.37
2017-12-16T11:39:34.045Z,22.52
2017-12-16T11:42:07.941Z,29.10
2017-12-16T11:44:42.356Z,17.12
2017-12-16T11:47:16.264Z,25.33
2017-12-16T11:49:50.880Z,19.60
2017-12-16T11:52:24.937Z,20.05
2017-12-16T11:54:58.744Z,21.52
2017-12-16T11:57:33.273Z,18.20
2017-12-16T12:00:07.868Z,18.73
2017-12-16T12:02:42.628Z,19.20
2017-12-16T12:05:16.332Z,18.10
2017-12-16T12:07:50.198Z,20.23
2017-12-16T12:10:23.937Z,21.02
2017-12-16T12:13:00.481Z,24.02
2017-12-16T12:15:34.258Z,18.02
2017-12-16T12:18:08.803Z,18.92
2017-12-16T12:20:42.642Z,24.95
2017-12-16T12:23:16.527Z,22.25
2017-12-16T12:25:51.165Z,20.60
2017-12-16T12:28:24.933Z,14.75
2017-12-16T12:30:58.685Z,17.37
2017-12-16T12:33:32.529Z,18.92
2017-12-16T12:36:06.255Z,18.70
2017-12-16T12:38:40.073Z,16.12
2017-12-16T12:41:13.846Z,15.80
2017-12-16T12:43:47.619Z,21.70
2017-12-16T12:46:21.401Z,28.77
2017-12-16T12:48:55.159Z,15.90
2017-12-16T12:51:28.883Z,13.95
2017-12-16T12:54:02.796Z,48.75
2017-12-16T12:56:36.564Z,18.00
2017-12-16T12:59:11.340Z,13.27
2017-12-16T13:01:45.150Z,14.70
2017-12-16T13:04:19.752Z,15.35
2017-12-16T13:06:53.669Z,14.43
2017-12-16T13:09:28.717Z,15.80
2017-12-16T13:12:02.522Z,16.10
2017-12-16T13:14:36.351Z,12.43
2017-12-16T13:17:10.859Z,12.50
2017-12-16T13:19:44.633Z,19.08
2017-12-16T13:22:19.289Z,15.43
2017-12-16T13:24:53.873Z,20.48
2017-12-16T13:27:27.729Z,13.98
2017-12-16T13:30:01.769Z,18.42
2017-12-16T13:32:36.328Z,12.80
2017-12-16T13:35:10.101Z,14.65
2017-12-16T13:37:45.399Z,11.07
2017-12-16T13:40:19.121Z,15.05
2017-12-16T13:42:52.782Z,14.32
2017-12-16T13:45:26.652Z,12.10
2017-12-16T13:48:01.152Z,13.40
2017-12-16T13:50:35.060Z,13.40
2017-12-16T13:53:09.716Z,20.65
2017-12-16T13:55:43.804Z,12.82
2017-12-16T13:58:17.660Z,13.20
2017-12-16T14:00:52.162Z,14.48
2017-12-16T14:03:25.782Z,15.35
2017-12-16T14:05:59.636Z,12.70
2017-12-16T14:08:33.352Z,15.30
2017-12-16T14:11:07.057Z,16.15
2017-12-16T14:13:40.942Z,15.77
2017-12-16T14:16:15.649Z,15.13
2017-12-16T14:18:49.594Z,13.65
2017-12-16T14:21:23.308Z,15.88
2017-12-16T14:23:57.160Z,14.75
2017-12-16T14:26:30.851Z,16.42
2017-12-16T14:29:05.464Z,13.00
2017-12-16T14:31:39.240Z,14.87
2017-12-16T14:34:13.298Z,18.52
2017-12-16T14:36:47.957Z,18.40
2017-12-16T14:39:22.080Z,19.77
2017-12-16T14:41:55.827Z,16.58
2017-12-16T14:44:29.895Z,18.83
2017-12-16T14:47:04.837Z,15.30
2017-12-16T14:49:39.520Z,18.67
2017-12-16T14:52:13.392Z,11.95
2017-12-16T14:54:47.186Z,18.12
2017-12-16T14:57:20.969Z,13.52
2017-12-16T14:59:54.943Z,13.80
2017-12-16T15:02:29.047Z,14.20
2017-12-16T15:05:02.895Z,19.00
2017-12-16T15:07:36.816Z,15.95
2017-12-16T15:10:11.889Z,13.75
2017-12-16T15:12:46.104Z,12.75
2017-12-16T15:15:20.061Z,12.05
2017-12-16T15:17:53.927Z,15.48
2017-12-16T15:20:28.079Z,12.90
2017-12-16T15:23:02.605Z,10.82
2017-12-16T15:25:36.484Z,15.90
2017-12-16T15:28:10.363Z,11.63
2017-12-16T15:30:45.037Z,11.70
2017-12-16T15:33:18.938Z,13.32
2017-12-16T15:35:52.818Z,13.13
2017-12-16T15:38:27.519Z,12.85
2017-12-16T15:41:01.458Z,12.55
2017-12-16T15:43:36.529Z,16.37
2017-12-16T15:46:10.283Z,14.38
2017-12-16T15:48:44.950Z,15.05
2017-12-16T15:51:19.041Z,14.30
2017-12-16T15:53:52.813Z,20.92
2017-12-16T15:56:26.610Z,12.23
2017-12-16T15:59:00.417Z,19.30
2017-12-16T16:01:35.619Z,20.00
2017-12-16T16:04:09.402Z,28.58
2017-12-16T16:06:44.022Z,16.23
2017-12-16T16:09:18.131Z,17.30
2017-12-16T16:11:52.945Z,24.20
2017-12-16T16:14:27.791Z,18.40
2017-12-16T16:17:01.908Z,19.77
2017-12-16T16:19:38.109Z,19.92
2017-12-16T16:22:11.903Z,18.33
2017-12-16T16:24:46.638Z,19.00
2017-12-16T16:27:20.894Z,19.95
2017-12-16T16:29:54.774Z,19.12
2017-12-16T16:32:29.437Z,16.95
2017-12-16T16:35:04.317Z,21.42
2017-12-16T16:37:38.340Z,21.40
2017-12-16T16:40:14.053Z,18.48
2017-12-16T16:42:47.997Z,16.27
2017-12-16T16:45:22.619Z,14.77
2017-12-16T16:47:57.553Z,16.77
2017-12-16T16:50:31.463Z,23.55
2017-12-16T16:53:05.263Z,16.08
2017-12-16T16:55:39.016Z,16.10
2017-12-16T16:58:12.883Z,19.60
2017-12-16T17:00:46.698Z,16.62
2017-12-16T17:03:20.507Z,19.70
2017-12-16T17:05:54.412Z,20.73
2017-12-16T17:08:28.229Z,21.08
2017-12-16T17:11:02.132Z,15.98
2017-12-16T17:13:35.826Z,18.58
2017-12-16T17:16:09.607Z,17.55
2017-12-16T17:18:43.248Z,19.37
2017-12-16T17:21:17.054Z,19.27
2017-12-16T17:23:50.895Z,13.73
2017-12-16T17:26:24.726Z,17.17
2017-12-16T17:28:58.568Z,18.67
2017-12-16T17:31:32.428Z,25.55
2017-12-16T17:34:06.309Z,29.15
2017-12-16T17:36:40.391Z,16.75
2017-12-16T17:39:14.267Z,18.65
2017-12-16T17:41:48.113Z,18.08
2017-12-16T17:44:21.904Z,13.70
2017-12-16T17:46:56.544Z,19.20
2017-12-16T17:49:30.531Z,14.38
2017-12-16T17:52:04.286Z,12.50
2017-12-16T17:54:38.809Z,11.93
2017-12-16T17:57:12.634Z,13.80
2017-12-16T17:59:46.463Z,21.02
2017-12-16T18:02:20.192Z,21.27
2017-12-16T18:04:54.109Z,16.15
2017-12-16T18:07:28.580Z,15.60
2017-12-16T18:10:03.127Z,15.40
2017-12-16T18:12:37.090Z,14.02
2017-12-16T18:15:11.566Z,17.12
2017-12-16T18:17:45.419Z,14.15
2017-12-16T18:20:19.132Z,13.40
2017-12-16T18:22:52.887Z,14.60
2017-12-16T18:25:26.679Z,15.98
2017-12-16T18:28:00.684Z,13.82
2017-12-16T18:30:34.982Z,14.75
2017-12-16T18:33:08.673Z,14.55
2017-12-16T18:35:42.514Z,15.10
2017-12-16T18:38:16.238Z,15.88
2017-12-16T18:40:51.268Z,15.20
2017-12-16T18:43:24.999Z,18.62
2017-12-16T18:45:58.896Z,16.40
2017-12-16T18:48:33.416Z,15.05
2017-12-16T18:51:07.274Z,16.50
2017-12-16T18:53:41.033Z,18.33
2017-12-16T18:56:14.842Z,14.32
2017-12-16T18:58:49.588Z,19.65
2017-12-16T19:01:24.352Z,15.45
2017-12-16T19:03:57.969Z,23.25
2017-12-16T19:06:31.846Z,21.52
2017-12-16T19:09:06.460Z,22.00
2017-12-16T19:11:40.145Z,15.20
2017-12-16T19:14:13.882Z,12.75
2017-12-16T19:16:47.777Z,15.00
2017-12-16T19:19:21.522Z,16.23
2017-12-16T19:21:55.303Z,17.15
2017-12-16T19:24:29.152Z,18.48
2017-12-16T19:27:03.639Z,20.08
2017-12-16T19:29:38.220Z,17.23
2017-12-16T19:32:12.131Z,14.35
2017-12-16T19:34:49.222Z,45.83
2017-12-16T19:37:23.167Z,15.40
2017-12-16T19:39:57.775Z,17.95
2017-12-16T19:42:31.715Z,20.85
2017-12-16T19:45:06.365Z,17.23
2017-12-16T19:47:40.231Z,17.42
2017-12-16T19:50:13.981Z,17.60
2017-12-16T19:52:47.704Z,14.30
2017-12-16T19:55:21.619Z,18.50
2017-12-16T19:57:55.371Z,18.52
2017-12-16T20:00:29.889Z,17.87
2017-12-16T20:03:03.768Z,16.62
2017-12-16T20:05:38.295Z,14.60
2017-12-16T20:08:12.187Z,22.30
2017-12-16T20:10:45.994Z,16.08
2017-12-16T20:13:19.822Z,16.90
2017-12-16T20:15:53.637Z,17.37
2017-12-16T20:18:27.578Z,18.40
2017-12-16T20:21:02.542Z,14.02
2017-12-16T20:23:36.354Z,15.45
2017-12-16T20:26:10.204Z,16.15
2017-12-16T20:28:44.168Z,16.35
2017-12-16T20:31:18.725Z,15.70
2017-12-16T20:33:56.198Z,14.05
2017-12-16T20:36:30.892Z,14.27
2017-12-16T20:39:05.447Z,16.62
2017-12-16T20:41:39.154Z,17.10
2017-12-16T20:44:13.000Z,13.52
2017-12-16T20:46:46.823Z,14.63
2017-12-16T20:49:28.155Z,15.57
2017-12-16T20:52:01.944Z,15.95
2017-12-16T20:54:36.492Z,13.07
2017-12-16T20:57:10.963Z,11.50
2017-12-16T20:59:44.921Z,13.15
2017-12-16T21:02:18.780Z,14.65
2017-12-16T21:04:57.488Z,14.85
2017-12-16T21:07:32.083Z,17.00
2017-12-16T21:10:05.968Z,15.65
2017-12-16T21:12:40.658Z,15.02
2017-12-16T21:15:15.376Z,14.27
2017-12-16T21:17:49.161Z,17.45
2017-12-16T21:20:22.975Z,12.13
2017-12-16T21:22:56.923Z,13.98
2017-12-16T21:25:30.764Z,16.15
2017-12-16T21:28:04.632Z,12.15
2017-12-16T21:30:39.336Z,15.63
2017-12-16T21:33:13.104Z,17.70
2017-12-16T21:35:47.096Z,14.45
2017-12-16T21:38:21.735Z,12.32
2017-12-16T21:40:55.778Z,17.05
2017-12-16T21:43:29.471Z,14.43
2017-12-16T21:46:03.291Z,11.60
2017-12-16T21:48:37.962Z,11.60
2017-12-16T21:51:11.915Z,11.10
2017-12-16T21:53:45.784Z,10.15
2017-12-16T21:56:20.427Z,10.70
2017-12-16T21:58:54.450Z,11.93
2017-12-16T22:01:28.965Z,13.45
2017-12-16T22:04:02.937Z,11.65
2017-12-16T22:06:37.537Z,12.60
2017-12-16T22:09:11.331Z,13.45
2017-12-16T22:11:45.245Z,11.43
2017-12-16T22:14:19.822Z,11.40
2017-12-16T22:16:53.640Z,11.15
2017-12-16T22:19:27.532Z,14.35
2017-12-16T22:22:01.451Z,13.27
2017-12-16T22:24:36.071Z,12.70
2017-12-16T22:27:10.162Z,10.35
2017-12-16T22:29:44.049Z,9.65
2017-12-16T22:32:18.618Z,11.40
2017-12-16T22:34:52.372Z,10.63
2017-12-16T22:37:26.123Z,16.62
2017-12-16T22:39:59.956Z,15.13
2017-12-16T22:42:33.688Z,14.50
2017-12-16T22:45:07.807Z,11.98
2017-12-16T22:47:41.636Z,12.00
2017-12-16T22:50:15.520Z,11.57
2017-12-16T22:52:50.063Z,9.65
2017-12-16T22:55:23.875Z,11.52
2017-12-16T22:57:57.799Z,10.32
2017-12-16T23:00:31.562Z,9.50
2017-12-16T23:03:05.305Z,10.98
2017-12-16T23:05:44.759Z,9.75
2017-12-16T23:08:18.497Z,8.55
2017-12-16T23:10:52.339Z,10.15
2017-12-16T23:13:26.549Z,7.85
2017-12-16T23:16:00.290Z,8.52
2017-12-16T23:18:34.089Z,9.77
2017-12-16T23:21:08.385Z,8.45
2017-12-16T23:23:42.276Z,11.43
2017-12-16T23:26:20.316Z,9.48
2017-12-16T23:28:54.194Z,10.35
2017-12-16T23:31:27.991Z,9.38
2017-12-16T23:34:01.854Z,11.65
2017-12-16T23:36:36.436Z,10.50
2017-12-16T23:39:11.027Z,10.52
2017-12-16T23:41:44.911Z,7.43
2017-12-16T23:44:18.926Z,9.68
2017-12-16T23:46:52.811Z,8.93
2017-12-16T23:49:27.416Z,9.82
2017-12-16T23:52:01.318Z,8.63
2017-12-16T23:54:35.950Z,7.28
2017-12-16T23:57:09.800Z,9.45
2017-12-16T23:59:43.576Z,8.30
